Time;durP1;ratioP1;P1;durP2;ratioP2;P2;SDS_P1;SDS_P2;PMS_P1;PMS_P2;Temp;Humidity;BMP_temperature;BMP_pressure;BME280_temperature;BME280_humidity;BME280_pressure;Samples;Min_cycle;Max_cycle;Signal;HPM_P1;HPM_P2
2021/09/02 00:02:08;;;;;;;8.55;6.18;;;11.00;99.60;;;;;;5081686;28;20225;-87
2021/09/02 00:04:37;;;;;;;8.70;5.82;;;11.00;99.60;;;;;;5080846;28;20311;-87
2021/09/02 00:07:05;;;;;;;11.32;6.20;;;10.90;99.70;;;;;;5085197;28;20200;-86
2021/09/02 00:09:32;;;;;;;9.32;6.07;;;10.90;99.60;;;;;;5079238;28;20229;-87
2021/09/02 00:12:01;;;;;;;8.65;5.90;;;10.90;99.60;;;;;;5083533;28;20265;-87
2021/09/02 00:14:28;;;;;;;7.80;5.90;;;10.80;99.70;;;;;;5087113;28;20315;-87
2021/09/02 00:16:56;;;;;;;8.10;5.68;;;10.90;99.80;;;;;;5086944;28;20228;-86
2021/09/02 00:19:23;;;;;;;7.28;6.00;;;10.80;99.70;;;;;;5081956;28;20237;-89
2021/09/02 00:21:51;;;;;;;7.10;6.05;;;10.80;99.90;;;;;;5078027;28;20210;-88
2021/09/02 00:24:18;;;;;;;6.35;5.68;;;10.90;99.80;;;;;;5080157;28;20224;-87
2021/09/02 00:26:46;;;;;;;7.93;5.53;;;11.00;99.50;;;;;;5089966;28;20213;-86
2021/09/02 00:29:13;;;;;;;7.95;5.53;;;11.00;99.40;;;;;;5085086;28;20279;-87
2021/09/02 00:31:40;;;;;;;6.63;5.93;;;11.00;99.40;;;;;;5073774;28;20209;-87
2021/09/02 00:34:07;;;;;;;6.63;5.75;;;10.90;99.20;;;;;;5083873;28;20249;-87
2021/09/02 00:36:35;;;;;;;6.72;6.00;;;10.80;99.30;;;;;;5082218;28;20686;-87
2021/09/02 00:39:03;;;;;;;7.57;6.20;;;10.80;99.60;;;;;;5089253;28;20284;-86
2021/09/02 00:41:30;;;;;;;8.98;6.40;;;10.90;99.60;;;;;;5088680;28;20296;-87
2021/09/02 00:43:57;;;;;;;6.63;5.93;;;10.80;99.30;;;;;;5089633;28;20236;-86
2021/09/02 00:46:25;;;;;;;6.60;5.93;;;10.80;99.40;;;;;;5083456;28;20212;-86
2021/09/02 00:48:53;;;;;;;7.07;6.03;;;10.70;99.40;;;;;;5075058;28;20280;-86
2021/09/02 00:51:22;;;;;;;6.88;6.00;;;10.80;99.50;;;;;;5090870;28;20208;-86
2021/09/02 00:53:50;;;;;;;6.32;5.70;;;10.70;99.40;;;;;;5072432;28;20229;-87
2021/09/02 00:56:20;;;;;;;8.10;5.75;;;10.60;99.50;;;;;;5084650;28;20574;-87
2021/09/02 00:58:48;;;;;;;7.07;5.82;;;10.60;99.40;;;;;;5077928;28;20201;-87
2021/09/02 01:01:17;;;;;;;7.15;6.45;;;10.50;99.50;;;;;;5091425;28;20209;-87
2021/09/02 01:03:45;;;;;;;6.47;5.85;;;10.50;99.50;;;;;;5084986;28;20217;-86
2021/09/02 01:06:13;;;;;;;6.40;5.57;;;10.40;99.50;;;;;;5074656;28;20623;-88
2021/09/02 01:08:41;;;;;;;6.15;5.22;;;10.50;99.60;;;;;;5088954;28;20269;-87
2021/09/02 01:11:08;;;;;;;6.72;5.70;;;10.60;99.40;;;;;;5080725;28;20299;-86
2021/09/02 01:13:37;;;;;;;6.63;5.60;;;10.50;99.30;;;;;;5088792;28;20736;-87
2021/09/02 01:16:04;;;;;;;7.50;5.95;;;10.30;99.50;;;;;;5085846;28;20221;-87
2021/09/02 01:18:31;;;;;;;6.72;5.53;;;10.40;99.70;;;;;;5084269;28;20261;-87
2021/09/02 01:20:59;;;;;;;7.88;5.53;;;10.40;99.40;;;;;;5082041;28;20296;-86
2021/09/02 01:23:27;;;;;;;7.40;5.80;;;10.40;99.50;;;;;;5086304;28;20277;-86
2021/09/02 01:25:54;;;;;;;8.75;5.38;;;10.30;99.50;;;;;;5086396;28;20309;-86
2021/09/02 01:28:21;;;;;;;6.03;5.13;;;10.20;99.70;;;;;;5082717;28;20209;-86
2021/09/02 01:30:49;;;;;;;6.80;5.65;;;10.20;99.70;;;;;;5079182;28;20286;-87
2021/09/02 01:33:18;;;;;;;6.82;5.80;;;10.20;99.80;;;;;;5076722;28;20229;-86
2021/09/02 01:35:46;;;;;;;9.02;5.32;;;10.10;99.80;;;;;;5083520;28;20217;-86
2021/09/02 01:38:13;;;;;;;6.15;5.55;;;10.10;99.70;;;;;;5083841;28;20292;-87
2021/09/02 01:40:43;;;;;;;6.43;5.75;;;10.10;99.80;;;;;;5089783;28;20297;-87
2021/09/02 01:43:14;;;;;;;6.32;5.63;;;10.10;99.80;;;;;;5081405;28;20904;-86
2021/09/02 01:45:41;;;;;;;9.82;5.68;;;10.10;99.90;;;;;;5079598;28;20230;-87
2021/09/02 01:48:09;;;;;;;6.97;6.22;;;10.00;99.90;;;;;;5080227;28;20261;-89
2021/09/02 01:50:40;;;;;;;6.40;5.70;;;10.10;99.90;;;;;;5083050;28;20339;-87
2021/09/02 01:53:09;;;;;;;8.55;5.63;;;10.10;99.70;;;;;;5086519;28;20280;-87
2021/09/02 01:55:37;;;;;;;6.68;5.78;;;10.00;99.90;;;;;;5081748;28;20225;-87
2021/09/02 01:58:06;;;;;;;6.43;5.55;;;10.00;99.90;;;;;;5081358;28;20675;-87
2021/09/02 02:00:34;;;;;;;8.00;5.68;;;10.00;99.90;;;;;;5076044;28;20217;-86
2021/09/02 02:03:01;;;;;;;6.38;5.40;;;10.00;99.90;;;;;;5080860;28;20256;-86
2021/09/02 02:05:29;;;;;;;8.32;5.50;;;10.00;99.80;;;;;;5080903;28;20241;-87
2021/09/02 02:07:56;;;;;;;7.32;5.30;;;10.10;99.60;;;;;;5077867;28;20344;-87
2021/09/02 02:10:26;;;;;;;6.70;5.78;;;10.10;99.50;;;;;;5082453;28;20256;-87
2021/09/02 02:12:54;;;;;;;7.35;5.30;;;10.20;99.50;;;;;;5079963;28;20260;-87
2021/09/02 02:15:23;;;;;;;7.07;5.53;;;10.00;99.30;;;;;;5077502;28;20242;-87
2021/09/02 02:17:50;;;;;;;6.90;5.72;;;9.90;99.90;;;;;;5085243;28;20292;-87
2021/09/02 02:20:17;;;;;;;6.97;5.75;;;10.00;99.50;;;;;;5086713;28;20225;-86
2021/09/02 02:22:45;;;;;;;6.20;5.60;;;9.90;99.90;;;;;;5083979;28;20260;-86
2021/09/02 02:25:13;;;;;;;7.47;5.90;;;9.90;99.90;;;;;;5078846;28;20249;-86
2021/09/02 02:27:41;;;;;;;9.80;6.97;;;9.80;99.90;;;;;;5077800;28;20230;-87
2021/09/02 02:30:11;;;;;;;6.78;6.07;;;9.80;99.90;;;;;;5085246;28;20300;-87
2021/09/02 02:32:39;;;;;;;6.53;5.55;;;9.80;99.90;;;;;;5078199;28;20229;-88
2021/09/02 02:35:07;;;;;;;7.85;5.75;;;9.90;99.90;;;;;;5094213;28;20251;-86
2021/09/02 02:37:34;;;;;;;6.57;5.13;;;10.00;99.50;;;;;;5080390;28;20601;-88
2021/09/02 02:40:01;;;;;;;5.90;5.30;;;10.10;99.50;;;;;;5078495;28;20280;-87
2021/09/02 02:42:28;;;;;;;9.02;5.57;;;10.10;99.40;;;;;;5083799;28;20205;-86
2021/09/02 02:44:55;;;;;;;7.60;5.68;;;10.10;99.10;;;;;;5078455;28;20280;-87
2021/09/02 02:47:22;;;;;;;6.68;5.55;;;9.90;99.70;;;;;;5077308;28;20266;-86
2021/09/02 02:49:50;;;;;;;6.60;5.00;;;10.00;99.30;;;;;;5077351;28;20285;-87
2021/09/02 02:52:19;;;;;;;7.70;5.60;;;9.90;99.60;;;;;;5074353;28;20284;-86
2021/09/02 02:54:47;;;;;;;8.15;5.85;;;9.90;99.60;;;;;;5071137;28;20257;-87
2021/09/02 02:57:13;;;;;;;6.30;5.57;;;9.80;99.50;;;;;;5075871;28;20244;-86
2021/09/02 02:59:41;;;;;;;7.45;5.75;;;9.70;99.50;;;;;;5082165;28;20272;-87
2021/09/02 03:02:07;;;;;;;5.85;5.25;;;9.70;99.80;;;;;;5080656;28;20272;-89
2021/09/02 03:04:35;;;;;;;6.55;5.35;;;9.70;99.90;;;;;;5087989;28;20249;-88
2021/09/02 03:07:03;;;;;;;6.72;5.43;;;9.60;99.80;;;;;;5071152;28;20201;-87
2021/09/02 03:09:31;;;;;;;6.57;5.28;;;9.60;99.70;;;;;;5070287;28;20255;-87
2021/09/02 03:11:57;;;;;;;6.07;5.35;;;9.50;99.80;;;;;;5082050;28;20198;-86
2021/09/02 03:14:25;;;;;;;6.43;5.50;;;9.60;99.90;;;;;;5076175;28;20281;-87
2021/09/02 03:16:51;;;;;;;9.18;5.60;;;9.60;99.70;;;;;;5074012;28;20289;-89
2021/09/02 03:19:19;;;;;;;7.07;5.55;;;9.60;99.70;;;;;;5079909;28;20706;-87
2021/09/02 03:21:46;;;;;;;6.57;5.68;;;9.60;99.60;;;;;;5073319;28;20193;-87
2021/09/02 03:24:14;;;;;;;5.78;5.05;;;9.60;99.70;;;;;;5081958;28;20221;-89
2021/09/02 03:26:42;;;;;;;7.43;5.43;;;9.60;99.70;;;;;;5075128;28;20208;-88
2021/09/02 03:29:09;;;;;;;8.45;5.82;;;9.50;99.90;;;;;;5075813;28;20237;-89
2021/09/02 03:31:36;;;;;;;7.50;5.63;;;9.40;99.90;;;;;;5070877;28;20283;-87
2021/09/02 03:34:03;;;;;;;6.47;5.50;;;9.40;99.90;;;;;;5074395;28;20308;-88
2021/09/02 03:36:30;;;;;;;6.70;5.82;;;9.30;99.90;;;;;;5081382;28;20262;-87
2021/09/02 03:38:57;;;;;;;6.70;5.93;;;9.30;99.90;;;;;;5076935;28;20228;-87
2021/09/02 03:41:25;;;;;;;9.70;6.03;;;9.30;99.90;;;;;;5077161;28;20207;-87
2021/09/02 03:43:53;;;;;;;8.95;6.18;;;9.40;99.90;;;;;;5081512;28;20288;-88
2021/09/02 03:46:20;;;;;;;10.30;6.07;;;9.40;99.90;;;;;;5067919;28;20327;-88
2021/09/02 03:48:46;;;;;;;9.18;6.43;;;9.30;99.90;;;;;;5072895;28;20193;-87
2021/09/02 03:51:13;;;;;;;6.13;5.50;;;9.40;99.90;;;;;;5076923;28;20228;-88
2021/09/02 03:53:40;;;;;;;6.85;6.10;;;9.50;99.90;;;;;;5072951;28;20202;-88
2021/09/02 03:56:07;;;;;;;7.75;5.95;;;9.60;99.90;;;;;;5073860;28;20224;-87
2021/09/02 03:58:36;;;;;;;8.20;6.18;;;9.50;99.80;;;;;;5076924;28;20300;-88
2021/09/02 04:01:03;;;;;;;8.02;5.97;;;9.50;99.90;;;;;;5076859;28;20281;-86
2021/09/02 04:03:30;;;;;;;6.53;5.85;;;9.50;99.70;;;;;;5075166;28;20228;-87
2021/09/02 04:05:58;;;;;;;9.43;6.35;;;9.50;99.60;;;;;;5078305;28;20281;-87
2021/09/02 04:08:25;;;;;;;7.45;6.32;;;9.40;99.70;;;;;;5074894;28;20319;-87
2021/09/02 04:10:52;;;;;;;8.23;6.47;;;9.30;99.70;;;;;;5067857;28;20313;-87
2021/09/02 04:13:19;;;;;;;6.65;5.78;;;9.20;99.90;;;;;;5063887;28;20225;-87
2021/09/02 04:15:48;;;;;;;7.70;6.07;;;9.30;99.90;;;;;;5068403;28;20254;-87
2021/09/02 04:18:15;;;;;;;8.00;6.70;;;9.30;99.90;;;;;;5074131;28;20213;-87
2021/09/02 04:20:42;;;;;;;6.93;6.13;;;9.20;99.90;;;;;;5080718;28;20224;-87
2021/09/02 04:23:09;;;;;;;6.95;5.90;;;9.20;99.90;;;;;;5082574;28;20228;-87
2021/09/02 04:25:37;;;;;;;6.88;5.90;;;9.20;99.90;;;;;;5077834;28;20240;-88
2021/09/02 04:28:04;;;;;;;7.88;6.90;;;9.20;99.90;;;;;;5080241;28;20201;-87
2021/09/02 04:30:31;;;;;;;6.75;5.90;;;9.30;99.90;;;;;;5072015;28;20218;-87
2021/09/02 04:33:01;;;;;;;7.88;6.68;;;9.40;99.90;;;;;;5076238;28;20652;-87
2021/09/02 04:35:29;;;;;;;7.40;6.20;;;9.40;99.90;;;;;;5075893;28;20218;-87
2021/09/02 04:37:56;;;;;;;9.32;6.75;;;9.50;99.90;;;;;;5068373;28;20312;-87
2021/09/02 04:40:23;;;;;;;7.80;6.97;;;9.50;99.90;;;;;;5090090;28;20281;-86
2021/09/02 04:42:50;;;;;;;7.55;6.75;;;9.60;99.90;;;;;;5081898;28;20639;-89
2021/09/02 04:45:18;;;;;;;8.80;7.43;;;9.50;99.90;;;;;;5079838;28;20224;-87
2021/09/02 04:47:45;;;;;;;7.55;6.78;;;9.50;99.90;;;;;;5078447;28;20205;-86
2021/09/02 04:50:14;;;;;;;10.40;7.40;;;9.50;99.90;;;;;;5073203;28;20703;-87
2021/09/02 04:52:41;;;;;;;10.77;7.25;;;9.50;99.90;;;;;;5078974;28;20283;-87
2021/09/02 04:55:10;;;;;;;9.25;7.72;;;9.60;99.90;;;;;;5079640;28;20277;-86
2021/09/02 04:57:37;;;;;;;9.57;7.45;;;9.60;99.90;;;;;;5080047;28;20301;-87
2021/09/02 05:00:07;;;;;;;8.32;7.15;;;9.70;99.90;;;;;;5077087;28;20287;-87
2021/09/02 05:02:35;;;;;;;9.98;6.72;;;9.80;99.90;;;;;;5075710;28;20233;-87
2021/09/02 05:05:02;;;;;;;7.68;6.88;;;9.90;99.90;;;;;;5081874;28;20752;-87
2021/09/02 05:07:34;;;;;;;9.77;6.53;;;9.90;99.90;;;;;;5077419;28;20283;-87
2021/09/02 05:10:05;;;;;;;7.10;6.28;;;10.00;99.90;;;;;;5083162;28;20221;-87
2021/09/02 05:12:32;;;;;;;10.60;7.18;;;10.00;99.90;;;;;;5080428;28;20201;-87
2021/09/02 05:14:59;;;;;;;10.27;6.68;;;10.00;99.90;;;;;;5081002;28;20245;-87
2021/09/02 05:17:26;;;;;;;8.18;6.90;;;10.10;99.80;;;;;;5081119;28;20221;-87
2021/09/02 05:19:53;;;;;;;7.30;6.55;;;10.10;99.60;;;;;;5076000;28;20234;-87
2021/09/02 05:22:22;;;;;;;7.45;6.63;;;10.10;99.50;;;;;;5077489;28;20818;-87
2021/09/02 05:24:50;;;;;;;8.00;6.95;;;10.10;99.50;;;;;;5077410;28;20285;-86
2021/09/02 05:27:18;;;;;;;9.52;6.97;;;10.20;99.60;;;;;;5077311;28;20269;-87
2021/09/02 05:29:45;;;;;;;9.77;6.82;;;10.20;99.60;;;;;;5079615;28;20253;-87
2021/09/02 05:32:12;;;;;;;10.18;7.10;;;10.30;99.70;;;;;;5072743;28;20194;-87
2021/09/02 05:34:39;;;;;;;8.02;7.07;;;10.30;99.70;;;;;;5080894;28;20304;-87
2021/09/02 05:37:07;;;;;;;7.95;6.63;;;10.40;99.90;;;;;;5084878;28;20265;-87
2021/09/02 05:39:34;;;;;;;9.30;7.18;;;10.40;99.90;;;;;;5074389;28;20226;-85
2021/09/02 05:42:05;;;;;;;7.88;7.05;;;10.40;99.90;;;;;;5086657;28;20240;-86
2021/09/02 05:44:33;;;;;;;8.63;7.43;;;10.40;99.80;;;;;;5072483;28;20689;-87
2021/09/02 05:47:00;;;;;;;9.57;7.72;;;10.50;99.90;;;;;;5084080;28;20276;-87
2021/09/02 05:49:27;;;;;;;9.55;7.72;;;10.50;99.90;;;;;;5080220;28;20281;-85
2021/09/02 05:51:54;;;;;;;8.63;7.68;;;10.60;99.90;;;;;;5084287;28;20261;-85
2021/09/02 05:54:21;;;;;;;10.73;7.40;;;10.60;99.90;;;;;;5076663;28;20316;-85
2021/09/02 05:56:48;;;;;;;15.60;8.20;;;10.70;99.90;;;;;;5079111;28;20237;-86
2021/09/02 05:59:17;;;;;;;9.90;7.25;;;10.70;99.90;;;;;;5079042;28;20228;-86
2021/09/02 06:01:44;;;;;;;11.00;7.60;;;10.70;99.90;;;;;;5087054;28;20265;-85
2021/09/02 06:04:11;;;;;;;9.02;7.32;;;10.70;99.90;;;;;;5076684;28;20221;-87
2021/09/02 06:06:38;;;;;;;10.63;7.53;;;10.80;99.90;;;;;;5082425;28;20273;-86
2021/09/02 06:09:07;;;;;;;10.07;7.18;;;10.80;99.90;;;;;;5083827;28;20248;-86
2021/09/02 06:11:37;;;;;;;8.20;6.90;;;10.80;99.90;;;;;;5085853;28;20251;-86
2021/09/02 06:14:04;;;;;;;9.15;6.50;;;10.90;99.90;;;;;;5087825;28;20247;-86
2021/09/02 06:16:33;;;;;;;8.55;7.65;;;11.00;99.90;;;;;;5088692;28;20225;-85
2021/09/02 06:19:00;;;;;;;10.43;7.43;;;11.10;99.80;;;;;;5084319;28;20294;-85
2021/09/02 06:21:27;;;;;;;9.23;7.05;;;11.10;99.80;;;;;;5081407;28;20308;-86
2021/09/02 06:23:54;;;;;;;8.50;6.78;;;11.20;99.90;;;;;;5081810;28;20254;-85
2021/09/02 06:26:21;;;;;;;10.60;7.00;;;11.30;99.90;;;;;;5075330;28;20273;-86
2021/09/02 06:28:48;;;;;;;9.13;7.70;;;11.30;99.90;;;;;;5070165;28;20269;-87
2021/09/02 06:31:15;;;;;;;8.93;6.72;;;11.50;99.90;;;;;;5080599;28;20240;-86
2021/09/02 06:33:44;;;;;;;8.63;7.53;;;11.70;99.70;;;;;;5080380;28;20248;-87
2021/09/02 06:36:11;;;;;;;10.63;6.97;;;11.80;99.60;;;;;;5081843;28;20265;-85
2021/09/02 06:38:38;;;;;;;9.18;7.03;;;11.90;99.50;;;;;;5082096;28;20801;-85
2021/09/02 06:41:05;;;;;;;9.88;7.05;;;12.00;99.30;;;;;;5076327;28;20206;-88
2021/09/02 06:43:32;;;;;;;10.07;7.10;;;12.10;99.00;;;;;;5068827;28;20812;-87
2021/09/02 06:46:01;;;;;;;9.20;8.30;;;12.20;99.00;;;;;;5078181;28;20208;-87
2021/09/02 06:48:34;;;;;;;11.32;7.32;;;12.30;98.70;;;;;;5077519;28;20201;-87
2021/09/02 06:51:03;;;;;;;11.02;7.30;;;12.40;98.50;;;;;;5075022;28;20695;-87
2021/09/02 06:53:31;;;;;;;10.82;6.93;;;12.50;98.30;;;;;;5077315;28;20261;-87
2021/09/02 06:55:58;;;;;;;10.18;7.40;;;12.50;98.60;;;;;;5081766;28;20202;-87
2021/09/02 06:58:25;;;;;;;10.30;6.80;;;12.60;98.00;;;;;;5077605;28;20221;-89
2021/09/02 07:00:52;;;;;;;8.93;6.93;;;12.60;98.00;;;;;;5073646;28;20240;-88
2021/09/02 07:03:26;;;;;;;9.50;7.05;;;12.70;98.10;;;;;;5079757;28;20217;-88
2021/09/02 07:05:53;;;;;;;12.38;6.78;;;12.80;98.30;;;;;;5077022;28;20261;-88
2021/09/02 07:08:33;;;;;;;11.75;7.30;;;12.90;97.60;;;;;;5075297;28;20280;-88
2021/09/02 07:11:01;;;;;;;10.10;6.75;;;13.00;97.20;;;;;;5076421;28;20223;-88
2021/09/02 07:13:29;;;;;;;11.27;6.60;;;13.10;96.80;;;;;;5067766;28;20224;-87
2021/09/02 07:15:59;;;;;;;11.70;6.85;;;13.20;96.80;;;;;;5082841;28;20641;-87
2021/09/02 07:18:26;;;;;;;9.40;6.25;;;13.20;96.80;;;;;;5085774;28;20213;-89
2021/09/02 07:20:53;;;;;;;7.38;6.10;;;13.40;96.50;;;;;;5079776;28;20225;-88
2021/09/02 07:23:21;;;;;;;7.82;6.38;;;13.50;96.50;;;;;;5083401;28;20285;-88
2021/09/02 07:25:57;;;;;;;9.80;6.32;;;13.50;96.30;;;;;;5086221;28;20225;-87
2021/09/02 07:28:24;;;;;;;9.07;6.07;;;13.70;95.50;;;;;;5081135;28;20224;-87
2021/09/02 07:30:52;;;;;;;8.13;6.28;;;13.80;95.60;;;;;;5075254;28;20277;-88
2021/09/02 07:33:25;;;;;;;8.13;6.10;;;13.90;95.90;;;;;;5078140;28;20293;-88
2021/09/02 07:35:53;;;;;;;8.82;5.97;;;14.10;95.10;;;;;;5076188;28;20326;-89
2021/09/02 07:38:22;;;;;;;6.53;5.53;;;14.20;94.80;;;;;;5083876;28;20217;-87
2021/09/02 07:40:49;;;;;;;7.50;5.93;;;14.20;94.70;;;;;;5078148;28;20240;-86
2021/09/02 07:43:18;;;;;;;9.00;5.72;;;14.30;94.50;;;;;;5070776;28;20198;-88
2021/09/02 07:45:46;;;;;;;8.15;6.10;;;14.40;94.00;;;;;;5073750;28;20252;-91
2021/09/02 07:48:15;;;;;;;5.90;5.30;;;14.50;93.50;;;;;;5067769;28;20206;-86
2021/09/02 07:50:42;;;;;;;6.53;5.15;;;14.60;93.70;;;;;;5071173;28;20252;-87
2021/09/02 07:53:09;;;;;;;5.85;5.22;;;14.70;93.30;;;;;;5072105;28;20293;-88
2021/09/02 07:55:36;;;;;;;6.70;5.38;;;14.80;93.10;;;;;;5065169;28;20216;-91
2021/09/02 07:58:04;;;;;;;7.10;5.10;;;14.90;93.40;;;;;;5068334;28;20622;-88
2021/09/02 08:00:32;;;;;;;11.95;6.03;;;15.00;92.50;;;;;;5072385;28;20231;-86
2021/09/02 08:02:59;;;;;;;7.22;4.80;;;15.10;91.80;;;;;;5067116;28;20204;-87
2021/09/02 08:05:28;;;;;;;7.10;5.18;;;15.20;92.30;;;;;;5066243;28;20280;-86
2021/09/02 08:07:55;;;;;;;5.97;5.20;;;15.30;90.90;;;;;;5061995;28;20560;-89
2021/09/02 08:10:23;;;;;;;7.15;4.70;;;15.40;86.30;;;;;;5067742;28;20328;-87
2021/09/02 08:12:51;;;;;;;5.88;4.70;;;15.50;87.30;;;;;;5063157;28;20201;-86
2021/09/02 08:15:19;;;;;;;7.40;5.05;;;15.70;81.60;;;;;;5065668;28;20221;-87
2021/09/02 08:17:48;;;;;;;7.72;4.93;;;15.80;80.20;;;;;;5061211;28;20235;-86
2021/09/02 08:20:17;;;;;;;4.93;4.13;;;15.80;77.80;;;;;;5065601;28;20227;-85
2021/09/02 08:22:44;;;;;;;9.90;8.48;;;15.90;77.90;;;;;;5067952;28;20293;-85
2021/09/02 08:25:12;;;;;;;5.07;4.57;;;16.00;78.00;;;;;;5069075;28;20218;-85
2021/09/02 08:27:40;;;;;;;5.00;4.50;;;15.90;77.90;;;;;;5063116;28;20875;-86
2021/09/02 08:30:08;;;;;;;6.28;4.90;;;16.00;75.60;;;;;;5069371;28;20226;-85
2021/09/02 08:32:47;;;;;;;6.68;4.88;;;16.10;78.10;;;;;;5075109;28;20221;-85
2021/09/02 08:35:15;;;;;;;5.13;4.63;;;16.30;78.20;;;;;;5070151;28;21563;-85
2021/09/02 08:37:44;;;;;;;8.35;4.75;;;16.40;76.50;;;;;;5070756;28;20199;-85
2021/09/02 08:40:13;;;;;;;6.78;5.28;;;16.50;74.10;;;;;;5061171;28;20253;-86
2021/09/02 08:42:42;;;;;;;4.75;4.35;;;16.60;73.00;;;;;;5068575;28;20273;-85
2021/09/02 08:45:09;;;;;;;5.63;5.05;;;16.70;73.30;;;;;;5065736;28;20924;-85
2021/09/02 08:47:37;;;;;;;6.38;5.63;;;16.70;75.00;;;;;;5064092;28;20197;-86
2021/09/02 08:50:05;;;;;;;5.80;4.30;;;16.90;71.20;;;;;;5071843;28;20231;-85
2021/09/02 08:52:33;;;;;;;5.80;4.55;;;17.00;74.70;;;;;;5070939;28;20198;-85
2021/09/02 08:55:02;;;;;;;5.35;4.85;;;17.20;74.70;;;;;;5067438;28;20284;-84
2021/09/02 08:57:30;;;;;;;6.65;4.75;;;17.20;67.20;;;;;;5066467;28;20208;-87
2021/09/02 08:59:57;;;;;;;5.60;4.82;;;17.40;65.70;;;;;;5078807;28;20225;-87
2021/09/02 09:02:26;;;;;;;4.85;4.20;;;17.70;62.60;;;;;;5079950;28;20581;-88
2021/09/02 09:05:02;;;;;;;5.93;4.47;;;17.80;60.10;;;;;;5078803;28;20256;-84
2021/09/02 09:07:30;;;;;;;5.70;4.47;;;18.00;56.70;;;;;;5076583;28;20281;-85
2021/09/02 09:09:59;;;;;;;5.85;4.47;;;18.60;54.60;;;;;;5074760;28;20226;-88
2021/09/02 09:12:34;;;;;;;5.93;4.68;;;20.10;47.00;;;;;;5063213;28;20284;-86
2021/09/02 09:15:00;;;;;;;6.15;5.22;;;22.20;37.90;;;;;;5074147;28;20231;-81
2021/09/02 09:17:27;;;;;;;6.32;4.78;;;24.00;30.60;;;;;;5063108;28;20675;-82
2021/09/02 09:19:54;;;;;;;6.47;5.57;;;24.90;27.20;;;;;;5065842;28;20229;-82
2021/09/02 09:22:24;;;;;;;5.55;4.60;;;26.10;25.10;;;;;;5070808;28;20262;-82
2021/09/02 09:24:53;;;;;;;6.07;5.47;;;26.70;25.50;;;;;;5071955;28;20583;-82
2021/09/02 09:27:24;;;;;;;5.40;4.90;;;25.80;24.90;;;;;;5068681;28;20232;-82
2021/09/02 09:30:08;;;;;;;5.50;5.00;;;27.40;23.40;;;;;;5068763;28;20231;-83
2021/09/02 09:32:41;;;;;;;5.63;5.20;;;27.90;19.90;;;;;;5064396;28;20244;-83
2021/09/02 09:35:10;;;;;;;5.53;5.13;;;28.30;20.60;;;;;;5066859;28;20713;-83
2021/09/02 09:37:37;;;;;;;7.43;5.55;;;28.00;20.10;;;;;;5066539;28;20283;-82
2021/09/02 09:40:12;;;;;;;11.50;10.45;;;29.00;16.30;;;;;;5067794;28;20226;-82
2021/09/02 09:42:40;;;;;;;5.90;5.40;;;28.00;18.40;;;;;;5066460;28;20259;-83
2021/09/02 09:45:11;;;;;;;6.13;5.63;;;28.40;17.80;;;;;;5063131;28;20248;-83
2021/09/02 09:47:38;;;;;;;6.82;6.20;;;28.50;18.10;;;;;;5076733;28;20193;-83
2021/09/02 09:50:10;;;;;;;7.82;7.13;;;28.20;18.10;;;;;;5071983;28;20704;-83
2021/09/02 09:52:41;;;;;;;6.90;6.30;;;29.10;19.20;;;;;;5067156;28;20198;-84
2021/09/02 09:55:13;;;;;;;5.90;4.88;;;29.90;16.60;;;;;;5059471;28;20225;-85
2021/09/02 09:57:43;;;;;;;5.72;5.05;;;28.40;18.30;;;;;;5071461;28;20320;-83
2021/09/02 10:00:11;;;;;;;5.65;5.15;;;28.10;18.60;;;;;;5069348;28;20231;-83
2021/09/02 10:02:40;;;;;;;5.38;4.85;;;28.90;16.10;;;;;;5072945;28;20203;-83
2021/09/02 10:05:08;;;;;;;6.88;5.07;;;29.80;16.60;;;;;;5064578;28;20219;-83
2021/09/02 10:07:36;;;;;;;6.40;5.10;;;29.70;16.50;;;;;;5072388;28;20200;-83
2021/09/02 10:10:04;;;;;;;6.30;5.55;;;29.70;17.30;;;;;;5062544;28;20320;-83
2021/09/02 10:12:34;;;;;;;6.57;5.63;;;29.40;16.30;;;;;;5065167;28;20615;-84
2021/09/02 10:15:06;;;;;;;5.57;5.18;;;29.00;19.00;;;;;;5066702;28;20596;-83
2021/09/02 10:17:34;;;;;;;6.55;5.00;;;29.30;16.30;;;;;;5070821;28;20188;-82
2021/09/02 10:20:03;;;;;;;5.80;5.20;;;29.40;16.30;;;;;;5062105;28;20252;-83
2021/09/02 10:22:30;;;;;;;5.85;4.90;;;29.70;16.00;;;;;;5066631;28;20226;-83
2021/09/02 10:24:57;;;;;;;5.20;4.80;;;29.00;16.20;;;;;;5069800;28;20806;-83
2021/09/02 10:27:36;;;;;;;5.13;4.63;;;27.80;17.30;;;;;;5069358;28;20288;-83
2021/09/02 10:30:24;;;;;;;5.43;4.93;;;28.70;16.00;;;;;;5060670;28;20216;-83
2021/09/02 10:32:53;;;;;;;4.93;4.53;;;29.00;16.10;;;;;;5064134;28;20700;-83
2021/09/02 10:35:34;;;;;;;4.93;4.50;;;28.00;18.10;;;;;;5065201;28;20601;-83
2021/09/02 10:38:02;;;;;;;5.40;4.90;;;28.40;15.80;;;;;;5067367;28;20238;-83
2021/09/02 10:40:51;;;;;;;5.07;4.65;;;28.50;15.90;;;;;;5068541;28;20233;-84
2021/09/02 10:43:45;;;;;;;4.85;4.45;;;28.40;17.10;;;;;;5067226;28;20196;-83
2021/09/02 10:46:30;;;;;;;5.35;4.93;;;28.90;16.80;;;;;;5067132;28;20215;-85
2021/09/02 10:48:58;;;;;;;5.47;5.05;;;29.40;16.30;;;;;;5072068;28;20304;-83
2021/09/02 10:51:36;;;;;;;5.20;4.68;;;29.30;17.60;;;;;;5075050;28;20259;-82
2021/09/02 10:54:06;;;;;;;5.22;4.75;;;29.20;16.20;;;;;;5072684;28;20225;-82
2021/09/02 10:56:51;;;;;;;5.43;4.95;;;28.60;16.50;;;;;;5067853;28;20231;-83
2021/09/02 10:59:45;;;;;;;6.07;4.70;;;28.00;19.20;;;;;;5073934;28;20234;-85
2021/09/02 11:02:43;;;;;;;5.20;4.80;;;28.10;17.80;;;;;;5069782;28;20656;-83
2021/09/02 11:05:12;;;;;;;5.25;4.85;;;27.70;20.20;;;;;;5066985;28;20225;-83
2021/09/02 11:07:42;;;;;;;5.10;4.68;;;27.50;19.50;;;;;;5066246;28;20203;-82
2021/09/02 11:10:12;;;;;;;5.10;4.60;;;26.70;20.60;;;;;;5068490;28;20307;-82
2021/09/02 11:12:40;;;;;;;4.78;4.38;;;25.90;21.20;;;;;;5061099;28;20252;-83
2021/09/02 11:15:08;;;;;;;4.68;4.20;;;25.00;22.60;;;;;;5068402;28;20224;-80
2021/09/02 11:17:37;;;;;;;5.93;4.47;;;24.60;24.60;;;;;;5070431;28;20545;-80
2021/09/02 11:20:19;;;;;;;5.00;4.50;;;24.40;24.90;;;;;;5064422;28;20717;-82
2021/09/02 11:22:47;;;;;;;5.13;4.63;;;24.10;25.00;;;;;;5073544;28;20224;-83
2021/09/02 11:25:17;;;;;;;6.00;5.05;;;23.90;27.90;;;;;;5060900;28;20223;-86
2021/09/02 11:27:44;;;;;;;5.50;5.00;;;23.70;28.00;;;;;;5064841;28;20260;-84
2021/09/02 11:30:16;;;;;;;8.15;4.53;;;23.40;28.00;;;;;;5073633;28;20223;-84
2021/09/02 11:32:46;;;;;;;4.63;4.22;;;23.30;29.30;;;;;;5074002;28;20253;-81
2021/09/02 11:35:14;;;;;;;5.00;4.50;;;23.10;27.70;;;;;;5070181;28;20221;-84
2021/09/02 11:37:43;;;;;;;4.68;4.28;;;23.00;30.50;;;;;;5064061;28;20202;-85
2021/09/02 11:40:23;;;;;;;4.70;4.20;;;22.90;29.40;;;;;;5067096;28;20231;-85
2021/09/02 11:42:50;;;;;;;5.72;4.15;;;22.90;29.30;;;;;;5075124;28;20207;-85
2021/09/02 11:45:18;;;;;;;4.90;4.50;;;22.90;29.20;;;;;;5074514;28;20216;-84
2021/09/02 11:47:49;;;;;;;6.07;5.05;;;22.70;32.20;;;;;;5066534;28;20241;-84
2021/09/02 11:50:19;;;;;;;5.63;4.88;;;22.50;30.80;;;;;;5075038;28;20229;-82
2021/09/02 11:52:48;;;;;;;5.20;4.20;;;22.50;29.80;;;;;;5072829;28;20713;-83
2021/09/02 11:55:26;;;;;;;6.00;4.55;;;22.60;30.90;;;;;;5066756;28;20658;-84
2021/09/02 11:57:54;;;;;;;5.32;4.53;;;22.40;32.30;;;;;;5076395;28;20207;-83
2021/09/02 12:00:21;;;;;;;6.75;4.30;;;22.30;33.80;;;;;;5077084;28;20308;-83
2021/09/02 12:02:51;;;;;;;4.72;4.25;;;22.50;31.30;;;;;;5073384;28;20289;-84
2021/09/02 12:05:23;;;;;;;8.85;4.50;;;22.30;31.70;;;;;;5074785;28;20219;-83
2021/09/02 12:07:51;;;;;;;5.32;4.70;;;22.30;32.40;;;;;;5066496;28;20239;-83
2021/09/02 12:10:19;;;;;;;4.80;4.40;;;22.30;32.60;;;;;;5077376;28;20229;-83
2021/09/02 12:12:46;;;;;;;7.80;6.18;;;22.20;33.90;;;;;;5070194;28;20269;-83
2021/09/02 12:15:26;;;;;;;6.10;5.15;;;22.00;33.70;;;;;;5071806;28;20233;-84
2021/09/02 12:18:09;;;;;;;5.43;4.75;;;22.10;33.10;;;;;;5076742;28;21015;-83
2021/09/02 12:20:39;;;;;;;7.13;4.50;;;22.10;33.80;;;;;;5077481;28;20248;-84
2021/09/02 12:23:23;;;;;;;5.32;4.53;;;22.20;33.90;;;;;;5079558;28;20193;-84
2021/09/02 12:25:58;;;;;;;5.20;4.43;;;22.20;32.70;;;;;;5071632;28;20236;-83
2021/09/02 12:28:35;;;;;;;5.00;4.50;;;22.10;32.10;;;;;;5082102;28;20228;-83
2021/09/02 12:31:21;;;;;;;6.00;4.40;;;22.00;31.90;;;;;;5085231;28;20221;-83
2021/09/02 12:34:01;;;;;;;5.07;4.45;;;22.00;32.40;;;;;;5083319;28;20213;-82
2021/09/02 12:36:29;;;;;;;5.20;4.70;;;21.90;33.60;;;;;;5067407;28;20665;-83
2021/09/02 12:38:56;;;;;;;5.72;4.32;;;21.90;33.60;;;;;;5073608;28;20324;-85
2021/09/02 12:41:25;;;;;;;4.93;4.43;;;21.90;33.60;;;;;;5080650;28;20229;-83
2021/09/02 12:44:02;;;;;;;5.22;4.72;;;21.80;33.60;;;;;;5076804;28;20261;-84
2021/09/02 12:46:45;;;;;;;4.88;4.35;;;21.80;33.60;;;;;;5076567;28;20204;-84
2021/09/02 12:49:14;;;;;;;7.22;4.65;;;21.80;33.60;;;;;;5084632;28;20252;-84
2021/09/02 12:51:41;;;;;;;6.88;4.40;;;21.70;33.50;;;;;;5085064;28;20262;-85
2021/09/02 12:54:08;;;;;;;4.63;4.22;;;21.80;33.60;;;;;;5079533;28;20276;-84
2021/09/02 12:56:36;;;;;;;4.72;4.25;;;21.70;33.50;;;;;;5076202;28;20257;-82
2021/09/02 12:59:03;;;;;;;4.82;4.20;;;21.80;33.60;;;;;;5078607;28;20231;-82